Hamme, Belgium
Current Conditions -  °F | °C
As of 2:20 PM on Sunday 21 Dec 2014 (Local Time) from EBAW Reporting Station
Light Rain Light Rain  
Wind Chill: 40°   Ceiling: 1000
Heat Index: 45°   Visibility: 4mi
Dew Point: 43°   Wind: 9mph
Humidity: 93%   Direction: 250°WSW
Pressure: 30.33"   Gusts: NA
Location:  51.1°N, 4.14°E
Report Text: EBAW 211320Z 25008KT 6000 -RADZ SCT005 BKN010 07/06 Q1027 TEMPO 23015G25KT BKN008
Loading
Personal Weather Stations






























Interactive Weather Map New forecast layout! Learn more

10-Day Weather Forecast

Advertisements
Track Severe Weather on mobile